Time;durP1;ratioP1;P1;durP2;ratioP2;P2;SDS_P1;SDS_P2;PMS_P1;PMS_P2;Temp;Humidity;BMP_temperature;BMP_pressure;BME280_temperature;BME280_humidity;BME280_pressure;Samples;Min_cycle;Max_cycle;Signal;HPM_P1;HPM_P2
2022/09/20 00:00:41;;;;;;;12.80;6.40;;;10.90;89.30;;;;;;5049643;28;20419;-74
2022/09/20 00:03:07;;;;;;;10.37;6.10;;;10.80;85.80;;;;;;5045548;28;20439;-74
2022/09/20 00:05:38;;;;;;;15.97;6.50;;;10.80;86.60;;;;;;5050010;28;20426;-73
2022/09/20 00:08:06;;;;;;;11.53;5.50;;;10.80;87.70;;;;;;5042676;28;20447;-73
2022/09/20 00:10:34;;;;;;;13.33;6.30;;;10.90;88.50;;;;;;5049845;28;20948;-74
2022/09/20 00:13:01;;;;;;;15.23;6.80;;;10.90;90.40;;;;;;5034875;28;20542;-74
2022/09/20 00:15:26;;;;;;;10.13;6.27;;;11.00;88.70;;;;;;5046445;28;20431;-73
2022/09/20 00:17:52;;;;;;;11.57;6.27;;;10.90;78.70;;;;;;5049282;28;20965;-73
2022/09/20 00:20:17;;;;;;;9.63;5.67;;;10.80;82.20;;;;;;5046809;28;20674;-74
2022/09/20 00:22:43;;;;;;;21.93;6.00;;;10.70;84.90;;;;;;5044604;28;20181;-74
2022/09/20 00:25:08;;;;;;;20.17;5.73;;;10.70;84.10;;;;;;5051220;28;20667;-73
2022/09/20 00:27:34;;;;;;;11.80;5.70;;;10.60;83.40;;;;;;5045101;28;20716;-74
2022/09/20 00:30:00;;;;;;;6.93;5.50;;;10.50;85.40;;;;;;5041484;28;20544;-74
2022/09/20 00:32:25;;;;;;;8.70;5.70;;;10.50;81.20;;;;;;5043022;28;20542;-73
2022/09/20 00:35:06;;;;;;;8.67;5.53;;;10.40;82.60;;;;;;5051210;28;20530;-74
2022/09/20 00:37:36;;;;;;;9.23;5.30;;;10.40;84.40;;;;;;5045086;28;20775;-74
2022/09/20 00:40:04;;;;;;;10.60;6.10;;;10.40;89.00;;;;;;5041385;28;20427;-74
2022/09/20 00:42:30;;;;;;;11.07;5.80;;;10.50;87.80;;;;;;5044235;28;20435;-74
2022/09/20 00:45:06;;;;;;;14.40;5.70;;;10.50;89.20;;;;;;5044660;28;20619;-74
2022/09/20 00:47:43;;;;;;;8.40;5.43;;;10.60;92.40;;;;;;5047871;28;20571;-73
2022/09/20 00:50:25;;;;;;;8.93;5.40;;;10.50;87.00;;;;;;5043242;28;20446;-73
2022/09/20 00:52:59;;;;;;;13.00;5.80;;;10.50;91.60;;;;;;5048675;28;20443;-73
2022/09/20 00:55:26;;;;;;;10.10;5.17;;;10.60;91.90;;;;;;5042380;28;20435;-73
2022/09/20 00:57:53;;;;;;;11.40;5.47;;;10.60;87.80;;;;;;5048464;28;20435;-73
2022/09/20 01:00:19;;;;;;;10.10;5.47;;;10.50;85.50;;;;;;5042970;28;20984;-74
2022/09/20 01:02:49;;;;;;;12.03;5.50;;;10.60;86.00;;;;;;5045875;28;20431;-73
2022/09/20 01:05:17;;;;;;;10.57;5.67;;;10.50;88.30;;;;;;5043970;28;20717;-74
2022/09/20 01:07:44;;;;;;;8.73;5.93;;;10.40;90.00;;;;;;5048363;28;20963;-73
2022/09/20 01:10:09;;;;;;;9.00;5.50;;;10.40;89.90;;;;;;5041782;28;20423;-73
2022/09/20 01:12:39;;;;;;;9.53;5.97;;;10.40;89.80;;;;;;5046829;28;20543;-73
2022/09/20 01:15:06;;;;;;;14.87;5.50;;;10.30;86.80;;;;;;5053701;28;20204;-75
2022/09/20 01:17:35;;;;;;;11.50;5.70;;;10.30;87.40;;;;;;5045929;28;20455;-74
2022/09/20 01:20:24;;;;;;;21.60;6.07;;;10.20;90.80;;;;;;5042225;28;20514;-73
2022/09/20 01:23:17;;;;;;;11.40;5.40;;;10.20;88.90;;;;;;5047903;28;20419;-74
2022/09/20 01:25:53;;;;;;;9.70;6.17;;;10.20;87.20;;;;;;5045325;28;20412;-73
2022/09/20 01:28:19;;;;;;;9.13;5.30;;;10.20;88.50;;;;;;5046662;28;20459;-73
2022/09/20 01:31:01;;;;;;;7.57;5.30;;;10.20;90.20;;;;;;5036497;28;20428;-74
2022/09/20 01:33:43;;;;;;;5.90;4.77;;;10.30;89.10;;;;;;5047663;28;20459;-72
2022/09/20 01:36:11;;;;;;;9.40;5.60;;;10.30;88.00;;;;;;5042566;28;20414;-72
2022/09/20 01:38:41;;;;;;;9.10;5.13;;;10.40;90.20;;;;;;5049511;28;20465;-74
2022/09/20 01:41:22;;;;;;;6.00;4.23;;;10.40;90.60;;;;;;5037284;28;20438;-74
2022/09/20 01:44:11;;;;;;;9.53;5.10;;;10.40;85.60;;;;;;5042826;28;20515;-73
2022/09/20 01:46:37;;;;;;;7.30;5.20;;;10.40;83.00;;;;;;5057751;28;20492;-74
2022/09/20 01:49:12;;;;;;;8.20;4.57;;;10.40;85.20;;;;;;5046903;28;20538;-74
2022/09/20 01:52:09;;;;;;;9.80;5.30;;;10.40;86.90;;;;;;5035630;28;20669;-74
2022/09/20 01:54:51;;;;;;;6.27;4.80;;;10.40;87.10;;;;;;5049700;28;20403;-73
2022/09/20 01:57:37;;;;;;;7.90;5.33;;;10.40;83.10;;;;;;5043823;28;20450;-73
2022/09/20 02:00:14;;;;;;;11.57;5.47;;;10.40;89.20;;;;;;5029176;28;20420;-73
2022/09/20 02:02:57;;;;;;;11.50;5.40;;;10.40;82.30;;;;;;5044998;28;20446;-73
2022/09/20 02:05:52;;;;;;;9.73;5.43;;;10.40;82.10;;;;;;5045676;28;20469;-74
2022/09/20 02:08:40;;;;;;;9.33;5.03;;;10.40;78.10;;;;;;5024031;28;20436;-74
2022/09/20 02:11:20;;;;;;;13.53;5.10;;;10.30;76.40;;;;;;5043985;28;20431;-73
2022/09/20 02:14:08;;;;;;;13.47;5.40;;;10.30;81.00;;;;;;5042944;28;20517;-74
2022/09/20 02:16:44;;;;;;;8.43;5.03;;;10.20;81.20;;;;;;5042979;28;21576;-74
2022/09/20 02:19:26;;;;;;;9.93;4.70;;;10.20;80.60;;;;;;5040053;28;20474;-73
2022/09/20 02:22:50;;;;;;;9.67;5.40;;;10.30;83.40;;;;;;5048460;28;20438;-73
2022/09/20 02:25:33;;;;;;;10.50;5.10;;;10.30;84.80;;;;;;5024974;28;20809;-74
2022/09/20 02:28:11;;;;;;;6.80;4.90;;;10.30;84.70;;;;;;5009493;28;20502;-73
2022/09/20 02:31:01;;;;;;;14.13;5.60;;;10.20;81.40;;;;;;5035702;28;20431;-73
2022/09/20 02:33:41;;;;;;;15.63;4.77;;;10.20;82.40;;;;;;5047266;28;20459;-73
2022/09/20 02:36:44;;;;;;;12.50;5.13;;;10.20;86.70;;;;;;5041425;28;20569;-74
2022/09/20 02:39:21;;;;;;;9.70;4.80;;;10.20;87.60;;;;;;5044694;28;20474;-73
2022/09/20 02:42:02;;;;;;;8.53;5.70;;;10.10;77.70;;;;;;5048817;28;20403;-74
2022/09/20 02:44:58;;;;;;;10.17;4.73;;;10.10;78.10;;;;;;5044149;28;20496;-74
2022/09/20 02:47:34;;;;;;;7.20;4.53;;;10.10;81.60;;;;;;5043288;28;20426;-72
2022/09/20 02:50:33;;;;;;;6.97;4.67;;;10.10;82.70;;;;;;5043641;28;20844;-73
2022/09/20 02:53:11;;;;;;;9.10;4.50;;;10.10;77.50;;;;;;5048486;28;20553;-75
2022/09/20 02:56:02;;;;;;;10.73;5.30;;;10.20;78.50;;;;;;5045874;28;20423;-74
2022/09/20 02:59:01;;;;;;;11.83;4.80;;;10.10;78.20;;;;;;5043550;28;20510;-73
2022/09/20 03:01:46;;;;;;;10.20;4.17;;;10.20;76.30;;;;;;5031292;28;20440;-74
2022/09/20 03:04:55;;;;;;;5.07;4.10;;;10.10;75.80;;;;;;5041238;28;20496;-74
2022/09/20 03:07:45;;;;;;;12.03;4.60;;;10.10;77.80;;;;;;5043084;28;20550;-73
2022/09/20 03:10:17;;;;;;;9.37;4.57;;;10.10;78.30;;;;;;5046149;28;20422;-73
2022/09/20 03:12:58;;;;;;;8.60;4.27;;;10.60;72.30;;;;;;5047921;28;20467;-74
2022/09/20 03:15:32;;;;;;;6.93;5.17;;;10.10;73.50;;;;;;5045015;28;20415;-72
2022/09/20 03:18:12;;;;;;;12.90;4.63;;;10.10;68.40;;;;;;5058567;28;20431;-74
2022/09/20 03:20:58;;;;;;;8.90;5.20;;;10.00;65.70;;;;;;5049449;28;20484;-72
2022/09/20 03:23:42;;;;;;;9.10;4.60;;;10.00;70.70;;;;;;5050320;28;20405;-73
2022/09/20 03:26:29;;;;;;;7.53;5.47;;;9.90;72.30;;;;;;5045807;28;20568;-73
2022/09/20 03:29:03;;;;;;;8.47;4.73;;;9.90;74.60;;;;;;5048339;28;20517;-73
2022/09/20 03:31:46;;;;;;;12.03;8.63;;;10.00;77.10;;;;;;5051480;28;20466;-73
2022/09/20 03:34:30;;;;;;;12.40;6.80;;;10.00;73.90;;;;;;5044301;28;20942;-73
2022/09/20 03:37:02;;;;;;;8.50;5.90;;;10.00;72.00;;;;;;5050831;28;20598;-74
2022/09/20 03:39:37;;;;;;;8.97;6.20;;;9.90;75.20;;;;;;5049696;28;20431;-73
2022/09/20 03:42:17;;;;;;;8.83;5.03;;;9.90;71.60;;;;;;5048766;28;20429;-74
2022/09/20 03:44:50;;;;;;;6.60;4.57;;;9.90;73.90;;;;;;5045896;28;20439;-74
2022/09/20 03:47:36;;;;;;;6.37;4.60;;;9.90;70.60;;;;;;5051243;28;20427;-73
2022/09/20 03:50:20;;;;;;;9.53;4.33;;;9.90;71.90;;;;;;5049395;28;20799;-72
2022/09/20 03:53:16;;;;;;;10.10;4.57;;;9.90;73.30;;;;;;5050272;28;20459;-74
2022/09/20 03:56:06;;;;;;;12.57;4.97;;;9.80;75.50;;;;;;5048760;28;20432;-74
2022/09/20 03:59:03;;;;;;;7.23;4.20;;;9.70;78.40;;;;;;5040893;28;20461;-73
2022/09/20 04:01:47;;;;;;;11.83;5.00;;;9.70;82.00;;;;;;5039750;28;20408;-74
2022/09/20 04:04:31;;;;;;;11.77;4.77;;;9.60;82.80;;;;;;5043447;28;20439;-73
2022/09/20 04:07:19;;;;;;;8.70;4.70;;;9.60;85.90;;;;;;5048301;28;20455;-73
2022/09/20 04:10:26;;;;;;;5.87;4.13;;;9.60;84.60;;;;;;5050694;28;20411;-73
2022/09/20 04:13:31;;;;;;;10.33;5.70;;;9.50;84.90;;;;;;5042589;28;20465;-73
2022/09/20 04:16:00;;;;;;;10.37;7.00;;;9.60;85.50;;;;;;5051119;28;20511;-73
2022/09/20 04:18:42;;;;;;;11.00;6.77;;;9.50;83.70;;;;;;5040133;28;20423;-73
2022/09/20 04:21:22;;;;;;;11.60;7.93;;;9.50;84.90;;;;;;5042174;28;20415;-74
2022/09/20 04:24:24;;;;;;;32.53;19.07;;;9.50;86.60;;;;;;5046543;28;20428;-73
2022/09/20 04:27:01;;;;;;;26.07;15.07;;;9.40;86.90;;;;;;5041680;28;20435;-72
2022/09/20 04:29:34;;;;;;;11.60;6.53;;;9.30;88.60;;;;;;5046258;28;20527;-73
2022/09/20 04:32:17;;;;;;;9.07;5.10;;;9.30;89.50;;;;;;5047627;28;20965;-72
2022/09/20 04:38:08;;;;;;;35.50;19.80;;;9.20;89.50;;;;;;5028299;28;20462;-74
2022/09/20 04:41:02;;;;;;;21.43;11.90;;;9.10;90.80;;;;;;5050880;28;20411;-74
2022/09/20 04:43:52;;;;;;;14.30;7.53;;;9.10;90.50;;;;;;5044680;28;20438;-74
2022/09/20 04:46:27;;;;;;;10.93;7.17;;;9.00;90.10;;;;;;5038805;28;20471;-73
2022/09/20 04:49:11;;;;;;;11.83;6.00;;;8.90;90.40;;;;;;5046057;28;20450;-71
2022/09/20 04:51:59;;;;;;;10.83;5.40;;;8.90;90.30;;;;;;5048701;28;20424;-73
2022/09/20 04:55:21;;;;;;;6.07;4.30;;;8.90;91.90;;;;;;5042936;28;20436;-73
2022/09/20 04:58:32;;;;;;;10.47;4.60;;;8.90;92.20;;;;;;5024395;28;20436;-73
2022/09/20 05:01:15;;;;;;;16.33;6.67;;;8.90;91.00;;;;;;5027702;28;20984;-73
2022/09/20 05:04:13;;;;;;;15.57;8.27;;;8.90;91.90;;;;;;5042433;28;20416;-73
2022/09/20 05:07:17;;;;;;;9.23;5.67;;;8.80;92.20;;;;;;5041433;28;20551;-73
2022/09/20 05:09:58;;;;;;;9.53;4.70;;;8.80;90.60;;;;;;5032737;28;20494;-73
2022/09/20 05:12:53;;;;;;;9.27;4.40;;;8.70;86.00;;;;;;5042617;28;20969;-73
2022/09/20 05:15:51;;;;;;;13.33;4.67;;;8.70;88.40;;;;;;5050849;28;20447;-72
2022/09/20 05:18:58;;;;;;;9.10;4.97;;;8.80;87.10;;;;;;5042936;28;20954;-73
2022/09/20 05:21:55;;;;;;;9.30;4.47;;;8.60;90.20;;;;;;5039907;28;20413;-73
2022/09/20 05:24:42;;;;;;;7.50;4.70;;;8.60;91.00;;;;;;5037954;28;20423;-73
2022/09/20 05:27:51;;;;;;;12.70;5.47;;;8.60;90.60;;;;;;5045275;28;20451;-73
2022/09/20 05:30:22;;;;;;;10.13;5.03;;;8.60;91.30;;;;;;5049671;28;20487;-73
2022/09/20 05:33:01;;;;;;;8.87;5.10;;;8.70;90.30;;;;;;5050608;28;20447;-73
2022/09/20 05:36:04;;;;;;;10.27;7.43;;;8.70;90.70;;;;;;5039197;28;20549;-73
2022/09/20 05:38:48;;;;;;;11.93;8.13;;;8.80;90.40;;;;;;5028879;28;20985;-73
2022/09/20 05:41:17;;;;;;;16.57;6.70;;;8.80;90.60;;;;;;5044439;28;20419;-73
2022/09/20 05:44:11;;;;;;;10.40;7.13;;;8.90;88.80;;;;;;5038324;28;20785;-73
2022/09/20 05:46:56;;;;;;;11.53;6.70;;;8.90;86.50;;;;;;5044465;28;20528;-73
2022/09/20 05:49:34;;;;;;;8.70;6.37;;;8.90;77.40;;;;;;5050350;28;20966;-72
2022/09/20 05:52:16;;;;;;;20.90;8.10;;;8.90;82.70;;;;;;5041618;28;20431;-73
2022/09/20 05:54:58;;;;;;;12.13;6.80;;;8.90;80.20;;;;;;5038327;28;20428;-73
2022/09/20 05:57:41;;;;;;;9.77;6.20;;;8.90;83.50;;;;;;5045379;28;20455;-73
2022/09/20 06:00:20;;;;;;;7.27;4.90;;;9.00;83.40;;;;;;5033672;28;20843;-72
2022/09/20 06:03:10;;;;;;;18.37;5.80;;;9.10;84.20;;;;;;5048526;28;20831;-73
2022/09/20 06:06:03;;;;;;;11.70;6.50;;;9.10;83.80;;;;;;5040897;28;20945;-74
2022/09/20 06:08:57;;;;;;;12.70;6.20;;;9.20;81.80;;;;;;5041380;28;20989;-73
2022/09/20 06:11:50;;;;;;;14.30;7.07;;;9.30;80.60;;;;;;5044123;28;20529;-74
2022/09/20 06:14:35;;;;;;;38.53;22.00;;;9.70;79.90;;;;;;5039394;28;21132;-73
2022/09/20 06:17:18;;;;;;;35.70;23.60;;;10.40;57.50;;;;;;5048437;28;20677;-75
2022/09/20 06:20:29;;;;;;;21.90;15.60;;;11.10;46.20;;;;;;5040832;28;20261;-75
2022/09/20 06:22:58;;;;;;;32.80;20.50;;;12.00;39.50;;;;;;5035947;28;20476;-76
2022/09/20 06:25:38;;;;;;;23.73;14.87;;;12.80;18.60;;;;;;5042319;28;20449;-76
2022/09/20 06:28:13;;;;;;;20.87;15.07;;;13.40;1.00;;;;;;5039475;28;20528;-76
2022/09/20 06:30:42;;;;;;;41.17;25.17;;;13.80;9.70;;;;;;5030086;28;20443;-77
2022/09/20 06:33:17;;;;;;;15.50;9.57;;;13.70;1.00;;;;;;5042375;28;20806;-75
2022/09/20 06:35:50;;;;;;;14.50;7.83;;;13.30;1.00;;;;;;5036895;28;20431;-75
2022/09/20 06:41:27;;;;;;;11.10;6.53;;;12.70;1.00;;;;;;5046467;28;20410;-74
2022/09/20 06:43:57;;;;;;;14.80;5.43;;;12.80;1.20;;;;;;5049343;28;20436;-75
2022/09/20 06:46:23;;;;;;;5.13;4.13;;;13.00;1.00;;;;;;5031062;28;20479;-75
2022/09/20 06:48:49;;;;;;;11.30;4.50;;;12.90;1.00;;;;;;5042828;28;20459;-74
2022/09/20 06:51:14;;;;;;;11.63;4.67;;;12.70;1.00;;;;;;5046519;28;20258;-73
2022/09/20 06:53:40;;;;;;;11.27;5.30;;;12.60;6.30;;;;;;5042639;28;20193;-73
2022/09/20 06:56:19;;;;;;;9.17;5.83;;;12.60;2.70;;;;;;5049045;28;20652;-74
2022/09/20 06:58:45;;;;;;;8.50;5.43;;;12.60;5.70;;;;;;5041727;28;20936;-74
2022/09/20 07:01:12;;;;;;;17.20;9.47;;;12.60;7.30;;;;;;5052125;28;20815;-74
2022/09/20 07:03:38;;;;;;;18.30;6.70;;;12.40;8.70;;;;;;5044763;28;20419;-74
2022/09/20 07:06:04;;;;;;;9.07;5.43;;;12.30;11.90;;;;;;5035540;28;20436;-74
2022/09/20 07:08:30;;;;;;;10.63;5.60;;;12.10;12.80;;;;;;5050175;28;20526;-74
2022/09/20 07:10:55;;;;;;;5.20;4.40;;;12.30;25.10;;;;;;5053171;28;20184;-74
2022/09/20 07:13:21;;;;;;;12.20;4.27;;;13.10;4.30;;;;;;5044527;28;20200;-74
2022/09/20 07:15:47;;;;;;;7.33;4.50;;;14.20;3.40;;;;;;5043788;28;20272;-74
2022/09/20 07:18:12;;;;;;;10.43;4.43;;;15.30;10.20;;;;;;5039407;28;20566;-74
2022/09/20 07:20:38;;;;;;;7.83;5.27;;;16.30;1.00;;;;;;5036056;28;20561;-74
2022/09/20 07:23:04;;;;;;;11.33;5.40;;;17.10;1.00;;;;;;5044811;28;20185;-75
2022/09/20 07:25:30;;;;;;;10.00;5.20;;;17.90;1.00;;;;;;5041287;28;20319;-75
2022/09/20 07:27:56;;;;;;;8.90;5.43;;;18.60;1.00;;;;;;5036713;28;20255;-75
2022/09/20 07:30:22;;;;;;;10.57;5.30;;;19.00;1.00;;;;;;5042224;28;20543;-75
2022/09/20 07:32:49;;;;;;;14.70;5.37;;;19.50;1.00;;;;;;5049464;28;20379;-74
2022/09/20 07:35:14;;;;;;;9.80;5.23;;;19.70;1.00;;;;;;5047887;28;20435;-75
2022/09/20 07:37:40;;;;;;;10.13;5.10;;;19.10;1.00;;;;;;5048804;28;20462;-74
2022/09/20 07:40:07;;;;;;;12.50;5.00;;;18.70;1.00;;;;;;5032855;28;20185;-75
2022/09/20 07:42:33;;;;;;;10.57;5.50;;;18.40;1.00;;;;;;5042337;28;20184;-74
2022/09/20 07:45:01;;;;;;;12.13;5.10;;;17.80;1.00;;;;;;5046188;28;20419;-75
2022/09/20 07:47:30;;;;;;;10.40;4.90;;;17.30;1.00;;;;;;5048166;28;20563;-75
2022/09/20 07:49:57;;;;;;;15.43;5.03;;;16.90;1.00;;;;;;5044175;28;20520;-74
2022/09/20 07:52:22;;;;;;;13.53;7.00;;;16.70;1.00;;;;;;5051378;28;20454;-74
2022/09/20 07:54:48;;;;;;;13.50;5.93;;;16.70;1.00;;;;;;5045429;28;20436;-75
2022/09/20 07:57:14;;;;;;;13.13;7.00;;;16.60;1.00;;;;;;5040147;28;20190;-76
2022/09/20 07:59:40;;;;;;;13.80;5.97;;;16.50;1.00;;;;;;5047964;28;20439;-75
2022/09/20 08:02:05;;;;;;;8.00;4.80;;;16.90;1.00;;;;;;5048620;28;20859;-74
2022/09/20 08:04:31;;;;;;;12.30;5.17;;;18.00;1.00;;;;;;5046121;28;20663;-75
2022/09/20 08:06:57;;;;;;;14.10;4.90;;;19.40;1.00;;;;;;5050625;28;20225;-74
2022/09/20 08:09:23;;;;;;;9.03;5.23;;;20.80;1.00;;;;;;5050237;28;20264;-75
2022/09/20 08:11:49;;;;;;;10.53;5.77;;;20.70;1.00;;;;;;5042805;28;20987;-75
2022/09/20 08:14:16;;;;;;;8.80;4.57;;;20.00;1.00;;;;;;5054205;28;20188;-75
2022/09/20 08:16:45;;;;;;;11.40;4.97;;;20.10;1.00;;;;;;5047905;28;20283;-75
2022/09/20 08:19:21;;;;;;;7.70;4.40;;;21.30;1.00;;;;;;5046795;28;20506;-75
2022/09/20 08:21:48;;;;;;;11.50;4.30;;;23.20;1.00;;;;;;5047559;28;20948;-75
2022/09/20 08:24:15;;;;;;;8.20;4.77;;;24.10;1.00;;;;;;5045772;28;20493;-76
2022/09/20 08:26:42;;;;;;;13.67;4.60;;;25.20;1.00;;;;;;5045559;28;20818;-76
2022/09/20 08:29:08;;;;;;;15.83;4.90;;;25.70;1.00;;;;;;5046780;28;20501;-75
2022/09/20 08:31:37;;;;;;;12.70;4.90;;;25.40;1.00;;;;;;5046943;28;20824;-75
2022/09/20 08:34:05;;;;;;;10.93;4.50;;;25.20;1.00;;;;;;5042036;28;20678;-75
2022/09/20 08:36:32;;;;;;;11.30;4.70;;;24.50;1.00;;;;;;5050733;28;20488;-76
2022/09/20 08:38:59;;;;;;;9.67;4.60;;;24.40;1.00;;;;;;5042560;28;20933;-75
2022/09/20 08:41:56;;;;;;;9.17;4.40;;;24.10;1.00;;;;;;5045306;28;20443;-75
2022/09/20 08:44:53;;;;;;;11.17;4.73;;;24.40;1.00;;;;;;5035572;28;20826;-76
2022/09/20 08:47:26;;;;;;;8.87;4.07;;;25.30;1.00;;;;;;5055312;28;20969;-75
2022/09/20 08:49:53;;;;;;;10.50;5.00;;;26.60;1.00;;;;;;5049667;28;20809;-76
2022/09/20 08:52:30;;;;;;;12.17;4.57;;;27.60;1.00;;;;;;5050177;28;20686;-75
2022/09/20 08:54:58;;;;;;;8.90;5.40;;;28.30;1.00;;;;;;5043644;28;20623;-75
2022/09/20 08:57:27;;;;;;;10.40;4.97;;;28.00;1.00;;;;;;5050596;28;20192;-75
2022/09/20 08:59:53;;;;;;;10.00;5.07;;;28.40;1.00;;;;;;5044259;28;20192;-75
2022/09/20 09:02:20;;;;;;;11.02;4.60;;;29.40;1.00;;;;;;5043616;28;20616;-75
2022/09/20 09:04:47;;;;;;;10.10;4.97;;;29.50;1.00;;;;;;5039736;28;20739;-75
2022/09/20 09:07:16;;;;;;;9.50;4.83;;;28.30;1.00;;;;;;5040227;28;20274;-75
2022/09/20 09:09:46;;;;;;;7.93;4.80;;;26.70;1.00;;;;;;5044703;28;20539;-75
2022/09/20 09:12:27;;;;;;;12.67;5.80;;;25.50;1.00;;;;;;5042999;28;20662;-76
2022/09/20 09:14:58;;;;;;;11.07;5.70;;;24.40;1.00;;;;;;5043587;28;20507;-75
2022/09/20 09:17:26;;;;;;;14.17;5.90;;;23.50;1.00;;;;;;5049686;28;20435;-76
2022/09/20 09:19:53;;;;;;;11.30;5.60;;;22.40;1.00;;;;;;5035237;28;20466;-74
2022/09/20 09:22:38;;;;;;;14.53;6.60;;;21.40;1.00;;;;;;5054647;28;20422;-74
2022/09/20 09:25:15;;;;;;;9.10;6.40;;;20.50;1.00;;;;;;5047268;28;20503;-75
2022/09/20 09:27:57;;;;;;;45.27;24.83;;;19.80;1.00;;;;;;5047758;28;20993;-76
2022/09/20 09:30:25;;;;;;;83.77;44.27;;;19.20;1.00;;;;;;5042016;28;20518;-76
2022/09/20 09:32:52;;;;;;;24.83;13.40;;;18.80;1.00;;;;;;5035977;28;20467;-75
2022/09/20 09:35:30;;;;;;;19.60;13.13;;;18.60;1.00;;;;;;5038477;28;20436;-75
2022/09/20 09:38:01;;;;;;;15.77;8.83;;;18.30;1.00;;;;;;5045188;28;20430;-75
2022/09/20 09:40:31;;;;;;;16.50;8.53;;;18.10;1.00;;;;;;5036885;28;20439;-77
2022/09/20 09:42:59;;;;;;;12.30;6.60;;;18.20;1.00;;;;;;5042690;28;20463;-73
2022/09/20 09:45:37;;;;;;;15.90;6.80;;;18.40;1.00;;;;;;5041396;28;20442;-74
2022/09/20 09:48:19;;;;;;;12.20;5.80;;;18.70;1.00;;;;;;5049623;28;20455;-73
2022/09/20 09:50:46;;;;;;;13.50;6.97;;;19.10;1.00;;;;;;5040808;28;20458;-74
2022/09/20 09:53:15;;;;;;;18.20;7.20;;;19.20;1.00;;;;;;5057707;28;20457;-74
2022/09/20 09:55:59;;;;;;;12.07;7.10;;;18.90;1.00;;;;;;5039541;28;20428;-73
2022/09/20 09:58:54;;;;;;;11.60;7.50;;;18.60;1.00;;;;;;5043888;28;20431;-73
2022/09/20 10:01:52;;;;;;;15.40;7.40;;;18.70;1.00;;;;;;5038577;28;20422;-73
2022/09/20 10:04:39;;;;;;;12.90;7.17;;;18.70;1.00;;;;;;5037675;28;20453;-74
2022/09/20 10:07:33;;;;;;;12.97;6.90;;;20.20;1.00;;;;;;5039823;28;20458;-73
2022/09/20 10:10:26;;;;;;;11.30;7.20;;;18.30;1.00;;;;;;5049568;28;20419;-74
2022/09/20 10:13:10;;;;;;;9.07;6.30;;;18.20;1.00;;;;;;5044694;28;20581;-74
2022/09/20 10:15:36;;;;;;;16.30;6.70;;;17.80;1.00;;;;;;5053475;28;20436;-73
2022/09/20 10:18:16;;;;;;;16.67;6.87;;;17.50;1.00;;;;;;5042112;28;20523;-73
2022/09/20 10:21:01;;;;;;;11.87;5.70;;;17.30;1.00;;;;;;5043288;28;20608;-74
2022/09/20 10:23:34;;;;;;;13.00;5.47;;;17.20;1.00;;;;;;5038828;28;20464;-74
2022/09/20 10:26:30;;;;;;;11.50;5.27;;;17.10;1.00;;;;;;5039500;28;20840;-73
2022/09/20 10:29:34;;;;;;;11.07;5.70;;;16.90;1.00;;;;;;5068463;28;20525;-74
2022/09/20 10:32:25;;;;;;;9.97;5.93;;;16.70;1.00;;;;;;5027330;28;20424;-74
2022/09/20 10:35:13;;;;;;;13.03;4.20;;;16.70;1.00;;;;;;5033898;28;20508;-74
2022/09/20 10:38:02;;;;;;;9.60;3.90;;;16.50;1.00;;;;;;5040121;28;20933;-73
2022/09/20 10:44:08;;;;;;;11.37;4.20;;;16.50;1.00;;;;;;5045131;28;20836;-74
2022/09/20 10:46:58;;;;;;;11.43;4.33;;;16.40;1.00;;;;;;5055134;28;20462;-74
2022/09/20 10:49:41;;;;;;;15.83;4.10;;;16.40;1.00;;;;;;5036684;28;20424;-74
2022/09/20 10:52:30;;;;;;;8.17;3.60;;;16.40;1.00;;;;;;5039981;28;20407;-74
2022/09/20 10:55:20;;;;;;;7.80;3.40;;;16.40;1.00;;;;;;5051721;28;20960;-74
2022/09/20 10:57:52;;;;;;;8.10;3.80;;;16.40;1.00;;;;;;5048187;28;20802;-74
2022/09/20 11:00:22;;;;;;;11.13;3.60;;;16.40;1.00;;;;;;5041143;28;20421;-74
2022/09/20 11:03:26;;;;;;;8.30;3.83;;;16.50;1.00;;;;;;5039013;28;20839;-73
2022/09/20 11:06:16;;;;;;;10.37;4.03;;;16.70;1.00;;;;;;5042908;28;20439;-73
2022/09/20 11:08:42;;;;;;;7.67;3.93;;;17.40;1.00;;;;;;5051299;28;20426;-74
2022/09/20 11:11:22;;;;;;;9.77;3.80;;;17.90;1.00;;;;;;5038961;28;20490;-74
2022/09/20 11:14:05;;;;;;;8.10;4.63;;;18.90;1.00;;;;;;5046828;28;20467;-75
2022/09/20 11:16:56;;;;;;;11.57;4.53;;;20.70;1.00;;;;;;5045888;28;20562;-74
2022/09/20 11:19:31;;;;;;;10.57;4.10;;;21.80;1.00;;;;;;5030153;28;20457;-74
2022/09/20 11:22:08;;;;;;;6.33;3.60;;;21.60;1.00;;;;;;5047891;28;20867;-74
2022/09/20 11:24:41;;;;;;;6.87;3.67;;;20.80;1.00;;;;;;5048465;28;20457;-73
2022/09/20 11:27:17;;;;;;;13.90;4.20;;;20.20;1.00;;;;;;5047793;28;20439;-74
2022/09/20 11:29:52;;;;;;;10.47;4.20;;;19.60;1.00;;;;;;5055253;28;20937;-73
2022/09/20 11:32:27;;;;;;;8.47;3.87;;;19.20;1.00;;;;;;5042528;28;20467;-74
2022/09/20 11:35:02;;;;;;;9.33;3.70;;;19.00;1.00;;;;;;5042803;28;20421;-73
2022/09/20 11:37:34;;;;;;;8.63;3.20;;;18.60;1.00;;;;;;5051969;28;20427;-74
2022/09/20 11:40:28;;;;;;;8.87;3.60;;;18.20;1.00;;;;;;5052766;28;20511;-74
2022/09/20 11:42:58;;;;;;;10.07;3.37;;;17.70;1.00;;;;;;5049565;28;20725;-74
2022/09/20 11:45:26;;;;;;;5.40;3.23;;;17.60;1.00;;;;;;5047057;28;20535;-74
2022/09/20 11:47:58;;;;;;;7.73;3.20;;;17.70;1.00;;;;;;5049708;28;20505;-74
2022/09/20 11:50:39;;;;;;;4.77;3.10;;;17.70;1.00;;;;;;5043908;28;20462;-73
2022/09/20 11:53:19;;;;;;;7.27;3.23;;;17.40;1.00;;;;;;5048183;28;20450;-75
2022/09/20 11:56:21;;;;;;;7.73;3.40;;;17.00;1.00;;;;;;5041934;28;20459;-74
2022/09/20 11:58:54;;;;;;;6.13;3.03;;;16.60;1.00;;;;;;5039092;28;20435;-74
2022/09/20 12:01:26;;;;;;;12.00;3.37;;;16.30;1.00;;;;;;5035049;28;20429;-74
2022/09/20 12:03:56;;;;;;;6.50;3.17;;;16.50;1.00;;;;;;5057130;28;20553;-75
2022/09/20 12:06:34;;;;;;;6.53;2.90;;;16.90;1.00;;;;;;5050826;28;20423;-74
2022/09/20 12:09:05;;;;;;;5.10;2.70;;;17.30;1.00;;;;;;5043601;28;20431;-75
2022/09/20 12:11:37;;;;;;;7.70;3.00;;;18.80;1.00;;;;;;5048624;28;20741;-75
2022/09/20 12:14:17;;;;;;;6.43;3.17;;;21.30;1.00;;;;;;5038433;28;20463;-75
2022/09/20 12:16:45;;;;;;;5.70;3.10;;;24.30;1.00;;;;;;5048782;28;20423;-74
2022/09/20 12:19:20;;;;;;;5.50;2.83;;;27.00;1.00;;;;;;5043006;28;20962;-74
2022/09/20 12:21:57;;;;;;;4.93;2.57;;;29.20;1.00;;;;;;5047774;28;20456;-76
2022/09/20 12:24:28;;;;;;;3.60;2.30;;;28.80;1.00;;;;;;5043343;28;20467;-75
2022/09/20 12:26:56;;;;;;;4.57;2.20;;;26.90;1.00;;;;;;5045278;28;20436;-75
2022/09/20 12:29:30;;;;;;;4.50;2.17;;;25.30;1.00;;;;;;5046530;28;20506;-74
2022/09/20 12:31:59;;;;;;;5.13;2.00;;;25.10;1.00;;;;;;5040665;28;20455;-75
2022/09/20 12:34:24;;;;;;;4.30;1.90;;;27.30;1.00;;;;;;5042591;28;20453;-74
2022/09/20 12:36:53;;;;;;;4.47;2.00;;;29.70;1.00;;;;;;5045798;28;21011;-75
2022/09/20 12:39:28;;;;;;;4.00;2.20;;;31.10;1.00;;;;;;5047895;28;20565;-75
2022/09/20 12:42:00;;;;;;;5.13;2.13;;;31.80;1.00;;;;;;5050099;28;20605;-75
2022/09/20 12:44:39;;;;;;;4.72;2.33;;;32.30;1.00;;;;;;5045466;28;20216;-75
2022/09/20 12:47:19;;;;;;;5.70;2.13;;;33.70;1.00;;;;;;5043416;28;20496;-75
2022/09/20 12:52:50;;;;;;;5.43;2.30;;;34.60;1.00;;;;;;5049991;28;20288;-74
2022/09/20 12:55:41;;;;;;;7.05;2.47;;;31.50;1.00;;;;;;5044960;28;20172;-76
2022/09/20 12:58:13;;;;;;;3.57;2.00;;;28.20;1.00;;;;;;5045827;28;20204;-75
2022/09/20 13:00:56;;;;;;;4.33;2.23;;;26.90;1.00;;;;;;5048202;28;20177;-75
2022/09/20 13:03:47;;;;;;;4.37;2.10;;;27.90;1.00;;;;;;5043521;28;20185;-76
2022/09/20 13:06:18;;;;;;;3.93;2.13;;;29.40;1.00;;;;;;5049749;28;20177;-76
2022/09/20 13:08:54;;;;;;;7.03;2.33;;;30.60;1.00;;;;;;5043967;28;20276;-75
2022/09/20 13:11:46;;;;;;;5.03;2.30;;;31.00;1.00;;;;;;5045705;28;20192;-75
2022/09/20 13:14:17;;;;;;;8.55;2.40;;;31.20;1.00;;;;;;5043922;28;20595;-75
2022/09/20 13:16:52;;;;;;;4.32;2.20;;;31.20;1.00;;;;;;5047556;28;20753;-76
2022/09/20 13:19:43;;;;;;;4.20;2.47;;;31.70;1.00;;;;;;5041570;28;20181;-74
2022/09/20 13:22:19;;;;;;;4.07;2.10;;;31.60;1.00;;;;;;5039087;28;20177;-76
2022/09/20 13:24:47;;;;;;;3.25;2.00;;;30.80;1.00;;;;;;5047216;28;20204;-75
2022/09/20 13:27:33;;;;;;;4.32;2.00;;;31.00;1.00;;;;;;5040332;28;20618;-76
2022/09/20 13:30:23;;;;;;;4.50;2.20;;;31.80;1.00;;;;;;5047804;28;20238;-75
2022/09/20 13:32:50;;;;;;;5.28;2.50;;;33.00;1.00;;;;;;5047364;28;20197;-75
2022/09/20 13:35:31;;;;;;;8.52;2.20;;;33.40;1.00;;;;;;5045881;28;20282;-75
2022/09/20 13:38:01;;;;;;;9.10;2.20;;;31.40;1.00;;;;;;5040845;28;20614;-75
2022/09/20 13:40:41;;;;;;;5.10;2.30;;;31.00;1.00;;;;;;5045527;28;20639;-75
2022/09/20 13:43:28;;;;;;;5.30;2.40;;;29.70;1.00;;;;;;5031231;28;20188;-75
2022/09/20 13:45:56;;;;;;;6.50;2.57;;;27.90;1.00;;;;;;5043203;28;20184;-74
2022/09/20 13:48:26;;;;;;;5.43;2.27;;;27.50;1.00;;;;;;5041542;28;20706;-74
2022/09/20 13:50:52;;;;;;;4.30;2.13;;;29.30;1.00;;;;;;5039858;28;20190;-76
2022/09/20 13:53:20;;;;;;;5.67;2.30;;;30.90;1.00;;;;;;5049964;28;20205;-75
2022/09/20 13:55:47;;;;;;;4.20;2.00;;;29.50;1.00;;;;;;5040685;28;20218;-75